Time;durP1;ratioP1;P1;durP2;ratioP2;P2;SDS_P1;SDS_P2;PMS_P1;PMS_P2;Temp;Humidity;BMP_temperature;BMP_pressure;BME280_temperature;BME280_humidity;BME280_pressure;Samples;Min_cycle;Max_cycle;Signal;HPM_P1;HPM_P2
2023/02/21 02:15:14;;;;;;;26.98;18.23;;;10.30;99.90;;;;;;5070583;28;20740;-76
2023/02/21 02:17:55;;;;;;;27.80;19.15;;;10.30;99.90;;;;;;5072307;28;20680;-76
2023/02/21 02:20:50;;;;;;;29.25;19.50;;;10.30;99.90;;;;;;5057887;28;20334;-76
2023/02/21 02:24:09;;;;;;;25.60;19.15;;;10.30;99.90;;;;;;5072356;28;20242;-74
2023/02/21 02:27:11;;;;;;;36.15;20.95;;;10.30;99.90;;;;;;5051876;28;20224;-76
2023/02/21 02:30:04;;;;;;;27.35;18.50;;;10.30;99.90;;;;;;5074378;28;20280;-76
2023/02/21 02:33:26;;;;;;;35.65;19.10;;;10.30;99.90;;;;;;5070561;28;20252;-76
2023/02/21 02:35:59;;;;;;;26.65;19.50;;;10.30;99.90;;;;;;5056835;28;20200;-76
2023/02/21 02:38:34;;;;;;;35.03;21.77;;;10.30;99.90;;;;;;5063602;28;20252;-75
2023/02/21 02:41:08;;;;;;;31.90;20.63;;;10.30;99.90;;;;;;5056762;28;20212;-75
2023/02/21 02:43:41;;;;;;;33.95;18.98;;;10.40;99.90;;;;;;5058372;28;20609;-76
2023/02/21 02:46:11;;;;;;;34.78;20.98;;;10.30;99.90;;;;;;5074777;28;20252;-75
2023/02/21 02:48:44;;;;;;;33.47;18.52;;;10.30;99.90;;;;;;5076422;28;20856;-76
2023/02/21 02:51:15;;;;;;;31.85;19.98;;;10.30;99.90;;;;;;5078249;28;20616;-76
2023/02/21 02:53:43;;;;;;;34.47;20.40;;;10.20;99.90;;;;;;5075224;28;20202;-75
2023/02/21 02:56:13;;;;;;;28.08;20.08;;;10.20;99.90;;;;;;5066485;28;20595;-75
2023/02/21 02:58:44;;;;;;;27.50;18.15;;;10.30;99.90;;;;;;5072286;28;20219;-76
2023/02/21 03:01:41;;;;;;;31.13;21.10;;;10.30;99.90;;;;;;5073916;28;20292;-76
2023/02/21 03:04:36;;;;;;;34.92;19.05;;;10.30;99.90;;;;;;5069312;28;20202;-75
2023/02/21 03:07:16;;;;;;;32.95;18.38;;;10.30;99.90;;;;;;5072981;28;20255;-76
2023/02/21 03:09:53;;;;;;;27.90;17.45;;;10.30;99.90;;;;;;5070343;28;20206;-75
2023/02/21 03:12:32;;;;;;;30.55;17.15;;;10.30;99.90;;;;;;5054623;28;20209;-76
2023/02/21 03:15:05;;;;;;;35.45;19.33;;;10.20;99.90;;;;;;5071790;28;20201;-76
2023/02/21 03:17:38;;;;;;;29.52;19.27;;;10.30;99.90;;;;;;5075355;28;20279;-75
2023/02/21 03:20:07;;;;;;;27.90;19.75;;;10.40;99.90;;;;;;5073464;28;20256;-78
2023/02/21 03:22:36;;;;;;;39.03;18.80;;;10.40;99.90;;;;;;5072239;28;20288;-77
2023/02/21 03:25:05;;;;;;;25.52;19.73;;;10.30;99.90;;;;;;5067270;28;20249;-77
2023/02/21 03:27:34;;;;;;;29.90;20.83;;;10.40;99.90;;;;;;5070888;28;20226;-75
2023/02/21 03:30:04;;;;;;;27.40;19.30;;;10.40;99.90;;;;;;5078542;28;20204;-75
2023/02/21 03:35:01;;;;;;;33.13;19.75;;;10.40;99.90;;;;;;5076279;28;20201;-76
2023/02/21 03:37:34;;;;;;;30.55;22.98;;;10.40;99.90;;;;;;5074521;28;20232;-77
2023/02/21 03:40:04;;;;;;;30.85;20.60;;;10.40;99.90;;;;;;5072648;28;20232;-76
2023/02/21 03:42:31;;;;;;;31.50;19.60;;;10.40;99.90;;;;;;5076448;28;20204;-78
2023/02/21 03:44:58;;;;;;;28.48;20.15;;;10.30;99.90;;;;;;5076956;28;20232;-76
2023/02/21 03:47:25;;;;;;;32.88;19.50;;;10.30;99.90;;;;;;5076408;28;20257;-76
2023/02/21 03:49:52;;;;;;;28.77;19.05;;;10.30;99.90;;;;;;5089148;28;20232;-75
2023/02/21 03:52:19;;;;;;;31.40;19.10;;;10.20;99.90;;;;;;5077436;28;20232;-74
2023/02/21 03:54:47;;;;;;;37.20;21.17;;;10.20;99.90;;;;;;5076195;28;20286;-75
2023/02/21 03:57:15;;;;;;;37.35;22.98;;;10.20;99.90;;;;;;5075828;28;20223;-76
2023/02/21 03:59:42;;;;;;;34.70;20.95;;;10.20;99.90;;;;;;5075038;28;20225;-76
2023/02/21 04:02:09;;;;;;;32.75;19.60;;;10.20;99.90;;;;;;5079200;28;20206;-77
2023/02/21 04:04:36;;;;;;;30.65;21.30;;;10.20;99.90;;;;;;5082347;28;20230;-75
2023/02/21 04:07:04;;;;;;;33.10;20.20;;;10.20;99.90;;;;;;5075559;28;20233;-75
2023/02/21 04:09:31;;;;;;;28.48;19.17;;;10.20;99.90;;;;;;5078954;28;20283;-77
2023/02/21 04:11:58;;;;;;;36.95;20.83;;;10.20;99.90;;;;;;5079856;28;20191;-75
2023/02/21 04:14:26;;;;;;;30.20;19.85;;;10.20;99.90;;;;;;5078509;28;20257;-76
2023/02/21 04:16:54;;;;;;;32.63;22.42;;;10.10;99.90;;;;;;5083111;28;20307;-74
2023/02/21 04:19:21;;;;;;;32.72;22.45;;;10.10;99.90;;;;;;5071990;28;20303;-76
2023/02/21 04:21:48;;;;;;;31.98;21.05;;;10.10;99.90;;;;;;5076077;28;20200;-76
2023/02/21 04:24:15;;;;;;;36.20;24.27;;;10.00;99.90;;;;;;5077844;28;20199;-76
2023/02/21 04:26:42;;;;;;;43.90;24.90;;;10.10;99.90;;;;;;5071295;28;20224;-75
2023/02/21 04:29:09;;;;;;;34.63;23.75;;;10.00;99.90;;;;;;5070042;28;20213;-77
2023/02/21 04:31:37;;;;;;;41.03;23.85;;;10.00;99.90;;;;;;5073073;28;20274;-76
2023/02/21 04:34:07;;;;;;;43.22;24.88;;;10.10;99.90;;;;;;5073604;28;20196;-76
2023/02/21 04:36:36;;;;;;;43.17;24.50;;;10.00;99.90;;;;;;5073082;28;20222;-75
2023/02/21 04:39:03;;;;;;;41.92;23.40;;;10.00;99.90;;;;;;5068036;28;20240;-76
2023/02/21 04:41:31;;;;;;;40.25;27.10;;;9.90;99.90;;;;;;5073076;28;20201;-75
2023/02/21 04:43:58;;;;;;;38.60;25.92;;;9.90;99.90;;;;;;5075080;28;20235;-76
2023/02/21 04:46:25;;;;;;;40.95;25.58;;;10.00;99.90;;;;;;5088570;28;20303;-76
2023/02/21 04:48:54;;;;;;;39.58;25.20;;;9.90;99.90;;;;;;5073987;28;20189;-75
2023/02/21 04:51:24;;;;;;;40.00;25.08;;;10.00;99.90;;;;;;5065271;28;20209;-76
2023/02/21 04:53:52;;;;;;;42.05;24.20;;;10.00;99.90;;;;;;5065871;28;20196;-75
2023/02/21 04:56:21;;;;;;;39.08;23.80;;;10.00;99.90;;;;;;5072604;28;20252;-75
2023/02/21 04:58:48;;;;;;;36.90;24.40;;;9.90;99.90;;;;;;5069494;28;20277;-76
2023/02/21 05:01:16;;;;;;;43.28;25.00;;;9.90;99.90;;;;;;5072019;28;20672;-76
2023/02/21 05:03:43;;;;;;;37.35;23.98;;;9.80;99.90;;;;;;5072065;28;20230;-75
2023/02/21 05:06:17;;;;;;;33.50;24.05;;;10.00;99.90;;;;;;5072513;28;20312;-75
2023/02/21 05:08:45;;;;;;;40.30;24.25;;;10.00;99.90;;;;;;5067647;28;20686;-76
2023/02/21 05:11:12;;;;;;;39.33;23.00;;;10.00;99.90;;;;;;5072326;28;20202;-76
2023/02/21 05:13:43;;;;;;;37.58;24.48;;;10.00;99.90;;;;;;5072342;28;20209;-79
2023/02/21 05:16:10;;;;;;;33.55;24.73;;;10.10;99.90;;;;;;5068093;28;20230;-76
2023/02/21 05:18:38;;;;;;;35.88;24.02;;;10.10;99.90;;;;;;5069838;28;20196;-77
2023/02/21 05:21:06;;;;;;;37.95;24.17;;;10.10;99.90;;;;;;5071125;28;20205;-76
2023/02/21 05:23:35;;;;;;;40.13;23.38;;;10.10;99.90;;;;;;5072963;28;20200;-75
2023/02/21 05:26:04;;;;;;;42.50;22.55;;;10.10;99.90;;;;;;5075842;28;20284;-75
2023/02/21 05:28:31;;;;;;;37.67;23.90;;;10.00;99.90;;;;;;5072530;28;20979;-75
2023/02/21 05:31:01;;;;;;;38.53;24.98;;;10.00;99.90;;;;;;5068894;28;20258;-75
2023/02/21 05:33:29;;;;;;;37.28;23.17;;;10.00;99.90;;;;;;5075506;28;20198;-76
2023/02/21 05:35:57;;;;;;;42.85;25.35;;;10.00;99.90;;;;;;5075636;28;20565;-76
2023/02/21 05:38:29;;;;;;;38.80;23.83;;;10.00;99.90;;;;;;5075453;28;20203;-76
2023/02/21 05:40:58;;;;;;;34.17;22.70;;;10.00;99.90;;;;;;5074876;28;20238;-75
2023/02/21 05:43:32;;;;;;;48.15;23.75;;;10.00;99.90;;;;;;5075607;28;20204;-75
2023/02/21 05:46:20;;;;;;;38.75;23.33;;;10.10;99.90;;;;;;5081047;28;20203;-76
2023/02/21 05:48:51;;;;;;;33.05;22.67;;;10.10;99.90;;;;;;5062231;28;20234;-76
2023/02/21 05:51:24;;;;;;;39.42;22.58;;;10.10;99.90;;;;;;5064296;28;20211;-74
2023/02/21 05:53:59;;;;;;;38.97;21.10;;;10.10;99.90;;;;;;5068336;28;20210;-76
2023/02/21 05:56:31;;;;;;;38.00;23.55;;;10.10;99.90;;;;;;5074425;28;20256;-74
2023/02/21 05:58:59;;;;;;;42.33;24.00;;;10.00;99.90;;;;;;5075082;28;20207;-76
2023/02/21 06:01:27;;;;;;;28.88;20.52;;;10.10;99.90;;;;;;5074794;28;20207;-76
2023/02/21 06:03:54;;;;;;;40.13;25.60;;;10.10;99.90;;;;;;5075589;28;20233;-75
2023/02/21 06:06:21;;;;;;;45.70;25.42;;;10.10;99.90;;;;;;5075919;28;20310;-75
2023/02/21 06:08:49;;;;;;;40.10;22.30;;;10.10;99.90;;;;;;5075378;28;20616;-75
2023/02/21 06:11:25;;;;;;;37.45;22.98;;;10.10;99.90;;;;;;5074501;28;20191;-74
2023/02/21 06:13:55;;;;;;;37.92;22.98;;;10.20;99.90;;;;;;5078538;28;20202;-74
2023/02/21 06:16:22;;;;;;;42.60;23.27;;;10.10;99.90;;;;;;5075089;28;20259;-73
2023/02/21 06:18:50;;;;;;;42.92;23.02;;;10.10;99.90;;;;;;5076126;28;20646;-74
2023/02/21 06:21:17;;;;;;;34.80;22.25;;;10.00;99.90;;;;;;5076515;28;20210;-74
2023/02/21 06:23:44;;;;;;;38.45;23.10;;;10.10;99.90;;;;;;5071581;28;20207;-74
2023/02/21 06:26:12;;;;;;;33.55;22.90;;;10.10;99.90;;;;;;5079719;28;20226;-76
2023/02/21 06:28:39;;;;;;;36.55;23.85;;;10.10;99.90;;;;;;5077614;28;20246;-74
2023/02/21 06:31:07;;;;;;;37.25;23.77;;;10.10;99.90;;;;;;5072192;28;20206;-77
2023/02/21 06:33:34;;;;;;;37.63;22.52;;;10.10;99.90;;;;;;5073967;28;20287;-76
2023/02/21 06:36:05;;;;;;;38.72;23.63;;;10.10;99.90;;;;;;5070828;28;20294;-77
2023/02/21 06:38:32;;;;;;;40.50;21.30;;;10.10;99.90;;;;;;5071708;28;20282;-73
2023/02/21 06:40:59;;;;;;;47.92;21.65;;;10.10;99.90;;;;;;5067319;28;20221;-74
2023/02/21 06:43:27;;;;;;;38.28;23.50;;;10.20;99.90;;;;;;5074284;28;20241;-74
2023/02/21 06:45:54;;;;;;;37.80;21.98;;;10.10;99.90;;;;;;5074305;28;20195;-73
2023/02/21 06:48:22;;;;;;;40.55;25.50;;;10.10;99.90;;;;;;5073437;28;20372;-74
2023/02/21 06:50:49;;;;;;;44.42;24.38;;;10.10;99.90;;;;;;5072505;28;20654;-73
2023/02/21 06:53:16;;;;;;;48.30;24.60;;;10.10;99.90;;;;;;5073359;28;20238;-75
2023/02/21 06:55:43;;;;;;;48.60;26.38;;;10.10;99.90;;;;;;5069701;28;20236;-76
2023/02/21 06:58:10;;;;;;;44.95;27.95;;;10.10;99.90;;;;;;5078393;28;20250;-76
2023/02/21 07:00:40;;;;;;;43.85;23.88;;;10.10;99.90;;;;;;5072860;28;20223;-76
2023/02/21 07:03:07;;;;;;;46.42;23.45;;;10.20;99.90;;;;;;5078001;28;20287;-74
2023/02/21 07:05:37;;;;;;;42.92;25.73;;;10.10;99.90;;;;;;5073812;28;20238;-76
2023/02/21 07:08:05;;;;;;;41.97;24.80;;;10.20;99.90;;;;;;5076075;28;20226;-73
2023/02/21 07:10:32;;;;;;;54.70;26.40;;;10.20;99.90;;;;;;5076256;28;20210;-73
2023/02/21 07:13:00;;;;;;;39.17;23.25;;;10.20;99.90;;;;;;5074029;28;20282;-74
2023/02/21 07:15:28;;;;;;;48.22;24.90;;;10.30;99.90;;;;;;5073761;28;20237;-73
2023/02/21 07:18:16;;;;;;;41.58;22.92;;;10.20;99.90;;;;;;5067633;28;20225;-74
2023/02/21 07:20:45;;;;;;;39.22;25.50;;;10.20;99.90;;;;;;5053110;28;20218;-75
2023/02/21 07:23:12;;;;;;;35.85;22.15;;;10.20;99.90;;;;;;5074172;28;20242;-75
2023/02/21 07:25:40;;;;;;;40.55;23.75;;;10.20;99.90;;;;;;5070205;28;20257;-76
2023/02/21 07:28:07;;;;;;;33.33;22.75;;;10.20;99.90;;;;;;5074840;28;20251;-75
2023/02/21 07:30:34;;;;;;;37.38;23.65;;;10.10;99.90;;;;;;5075457;28;20281;-77
2023/02/21 07:33:02;;;;;;;40.92;23.25;;;10.10;99.90;;;;;;5078119;28;20690;-76
2023/02/21 07:35:29;;;;;;;38.72;24.13;;;10.20;99.90;;;;;;5073837;28;20209;-77
2023/02/21 07:38:01;;;;;;;38.90;22.00;;;10.30;99.90;;;;;;5074013;28;20230;-77
2023/02/21 07:40:28;;;;;;;42.88;23.92;;;10.30;99.90;;;;;;5073935;28;20211;-76
2023/02/21 07:42:55;;;;;;;45.65;24.20;;;10.30;99.90;;;;;;5075382;28;20252;-77
2023/02/21 07:45:30;;;;;;;35.72;20.85;;;10.30;99.90;;;;;;5074643;28;20715;-76
2023/02/21 07:47:56;;;;;;;34.03;20.45;;;10.20;99.90;;;;;;5089105;28;20217;-76
2023/02/21 07:50:23;;;;;;;37.25;22.55;;;10.20;99.90;;;;;;5085797;28;20242;-75
2023/02/21 07:52:51;;;;;;;37.38;22.55;;;10.30;99.90;;;;;;5073437;28;20241;-76
2023/02/21 07:55:20;;;;;;;42.85;24.48;;;10.30;99.90;;;;;;5067501;28;20227;-75
2023/02/21 07:57:47;;;;;;;43.10;23.35;;;10.30;99.90;;;;;;5072458;28;20256;-77
2023/02/21 08:00:15;;;;;;;38.17;23.10;;;10.30;99.90;;;;;;5071968;28;20249;-76
2023/02/21 08:02:47;;;;;;;46.15;21.90;;;10.40;99.90;;;;;;5072714;28;20205;-77
2023/02/21 08:05:16;;;;;;;37.90;21.35;;;10.40;99.90;;;;;;5072594;28;20210;-76
2023/02/21 08:07:44;;;;;;;35.47;22.65;;;10.40;99.90;;;;;;5076528;28;20416;-76
2023/02/21 08:10:12;;;;;;;39.80;22.30;;;10.30;99.90;;;;;;5073802;28;20207;-76
2023/02/21 08:12:40;;;;;;;34.97;20.27;;;10.40;99.90;;;;;;5071149;28;20285;-75
2023/02/21 08:15:08;;;;;;;30.42;21.40;;;10.40;99.90;;;;;;5073163;28;20724;-75
2023/02/21 08:17:35;;;;;;;36.20;20.73;;;10.40;99.90;;;;;;5073435;28;20228;-75
2023/02/21 08:20:05;;;;;;;36.72;23.30;;;10.40;99.90;;;;;;5071197;28;20215;-77
2023/02/21 08:22:32;;;;;;;42.63;23.33;;;10.40;99.90;;;;;;5072269;28;20580;-77
2023/02/21 08:24:59;;;;;;;36.42;23.42;;;10.40;99.90;;;;;;5072896;28;20620;-74
2023/02/21 08:27:26;;;;;;;46.40;23.42;;;10.30;99.90;;;;;;5072002;28;20227;-75
2023/02/21 08:29:54;;;;;;;35.92;23.17;;;10.50;99.90;;;;;;5074591;28;20233;-75
2023/02/21 08:32:37;;;;;;;42.13;23.35;;;10.50;99.90;;;;;;5067558;28;20249;-74
2023/02/21 08:35:05;;;;;;;37.97;20.95;;;10.60;99.90;;;;;;5077020;28;20283;-75
2023/02/21 08:37:35;;;;;;;36.90;22.73;;;10.50;99.90;;;;;;5083121;28;20219;-76
2023/02/21 08:40:03;;;;;;;37.95;23.85;;;10.60;99.90;;;;;;5089357;28;20222;-76
2023/02/21 08:42:31;;;;;;;44.45;23.52;;;10.50;99.90;;;;;;5081287;28;20296;-76
2023/02/21 08:44:59;;;;;;;40.85;21.30;;;10.60;99.90;;;;;;5090568;28;20644;-75
2023/02/21 08:47:27;;;;;;;37.55;20.25;;;10.60;99.90;;;;;;5075742;28;20290;-76
2023/02/21 08:49:54;;;;;;;36.85;21.85;;;10.60;99.90;;;;;;5077415;28;20200;-75
2023/02/21 08:52:21;;;;;;;32.38;19.70;;;10.70;99.90;;;;;;5075291;28;20275;-75
2023/02/21 08:54:59;;;;;;;36.25;22.55;;;10.60;99.90;;;;;;5074971;28;20204;-74
2023/02/21 08:57:27;;;;;;;35.95;21.25;;;10.60;99.90;;;;;;5075701;28;20246;-75
2023/02/21 08:59:54;;;;;;;36.95;21.55;;;10.60;99.90;;;;;;5075329;28;20295;-74
2023/02/21 09:02:25;;;;;;;50.88;23.13;;;10.60;99.90;;;;;;5075302;28;20555;-74
2023/02/21 09:04:52;;;;;;;41.17;19.80;;;10.60;99.90;;;;;;5075499;28;20229;-75
2023/02/21 09:07:21;;;;;;;41.53;20.02;;;10.60;99.90;;;;;;5080584;28;20693;-74
2023/02/21 09:09:48;;;;;;;29.55;20.73;;;10.60;99.90;;;;;;5083630;28;20243;-76
2023/02/21 09:12:15;;;;;;;33.38;20.63;;;10.70;99.90;;;;;;5079063;28;20230;-74
2023/02/21 09:14:44;;;;;;;30.27;20.48;;;10.70;99.90;;;;;;5080870;28;20231;-74
2023/02/21 09:17:13;;;;;;;36.70;19.98;;;10.80;99.90;;;;;;5075006;28;20223;-74
2023/02/21 09:19:43;;;;;;;35.10;21.80;;;10.80;99.90;;;;;;5089588;28;20236;-73
2023/02/21 09:22:11;;;;;;;53.72;25.50;;;10.80;99.90;;;;;;5080838;28;20231;-73
2023/02/21 09:25:11;;;;;;;45.42;22.08;;;10.70;99.90;;;;;;5076427;28;20212;-74
2023/02/21 09:28:17;;;;;;;33.13;20.33;;;10.80;99.90;;;;;;5076848;28;20234;-74
2023/02/21 09:30:44;;;;;;;52.92;23.40;;;10.70;99.90;;;;;;5069923;28;20251;-75
2023/02/21 09:33:12;;;;;;;40.53;22.33;;;10.70;99.90;;;;;;5072429;28;20308;-75
2023/02/21 09:35:58;;;;;;;46.40;23.00;;;10.70;99.90;;;;;;5066874;28;20543;-74
2023/02/21 09:38:25;;;;;;;43.25;21.90;;;10.80;99.90;;;;;;5075896;28;20631;-73
2023/02/21 09:40:59;;;;;;;36.67;19.05;;;10.80;99.90;;;;;;5075265;28;20317;-72
2023/02/21 09:43:32;;;;;;;35.58;20.08;;;10.90;99.90;;;;;;5053424;28;20240;-73
2023/02/21 09:46:03;;;;;;;33.30;18.95;;;10.90;99.90;;;;;;5075933;28;20557;-74
2023/02/21 09:48:32;;;;;;;34.25;21.10;;;10.90;99.90;;;;;;5074863;28;20196;-74
2023/02/21 09:51:03;;;;;;;58.08;24.67;;;10.90;99.90;;;;;;5073810;28;20234;-75
2023/02/21 09:53:32;;;;;;;40.70;22.15;;;10.90;99.90;;;;;;5073727;28;20247;-74
2023/02/21 09:56:04;;;;;;;38.40;21.67;;;10.80;99.90;;;;;;5075206;28;20304;-72
2023/02/21 09:58:31;;;;;;;32.42;20.33;;;10.90;99.90;;;;;;5074810;28;20210;-75
2023/02/21 10:01:03;;;;;;;43.85;24.15;;;10.90;99.90;;;;;;5080951;28;20224;-74
2023/02/21 10:03:44;;;;;;;38.28;24.48;;;11.00;99.90;;;;;;5084279;28;20205;-74
2023/02/21 10:06:25;;;;;;;38.97;19.38;;;11.10;99.90;;;;;;5061834;28;20238;-73
2023/02/21 10:08:57;;;;;;;40.50;19.13;;;11.10;99.90;;;;;;5063805;28;20197;-75
2023/02/21 10:11:36;;;;;;;40.97;21.35;;;11.20;99.90;;;;;;5074108;28;20217;-74
2023/02/21 10:14:17;;;;;;;42.30;19.77;;;11.30;99.90;;;;;;5072787;28;20229;-72
2023/02/21 10:16:51;;;;;;;29.60;18.10;;;11.20;99.90;;;;;;5053909;28;20226;-74
2023/02/21 10:19:24;;;;;;;44.10;21.17;;;11.30;99.90;;;;;;5058275;28;20266;-74
2023/02/21 10:21:57;;;;;;;48.97;22.65;;;11.30;99.90;;;;;;5053457;28;20680;-73
2023/02/21 10:24:26;;;;;;;46.13;23.20;;;11.40;99.90;;;;;;5074672;28;20214;-72
2023/02/21 10:26:58;;;;;;;35.70;20.88;;;11.20;99.90;;;;;;5074069;28;20332;-71
2023/02/21 10:29:30;;;;;;;28.52;19.02;;;11.20;99.90;;;;;;5073325;28;20202;-70
2023/02/21 10:32:02;;;;;;;30.85;21.33;;;11.40;99.90;;;;;;5075022;28;20277;-72
2023/02/21 10:34:32;;;;;;;30.00;18.85;;;11.40;99.90;;;;;;5070611;28;20680;-71
2023/02/21 10:37:10;;;;;;;37.22;22.40;;;11.50;99.90;;;;;;5072620;28;20654;-71
2023/02/21 10:39:43;;;;;;;26.65;18.67;;;11.50;99.90;;;;;;5073897;28;20615;-72
2023/02/21 10:42:19;;;;;;;27.60;18.88;;;11.60;99.90;;;;;;5077039;28;20575;-72
2023/02/21 10:44:46;;;;;;;28.05;19.10;;;11.60;99.90;;;;;;5081357;28;20246;-74
2023/02/21 10:47:19;;;;;;;38.78;20.42;;;11.80;99.90;;;;;;5087970;28;20582;-72
2023/02/21 10:49:52;;;;;;;26.90;17.65;;;11.80;99.90;;;;;;5070240;28;20210;-74
2023/02/21 10:52:21;;;;;;;34.45;18.63;;;11.80;99.90;;;;;;5060429;28;20245;-74
2023/02/21 10:55:01;;;;;;;24.77;18.23;;;11.80;99.90;;;;;;5059529;28;20198;-74
2023/02/21 10:57:31;;;;;;;38.50;19.70;;;11.70;99.90;;;;;;5076075;28;20260;-73
2023/02/21 10:59:59;;;;;;;28.25;18.55;;;11.70;99.90;;;;;;5072734;28;20195;-73
2023/02/21 11:02:31;;;;;;;31.27;17.27;;;11.80;99.90;;;;;;5084844;28;20213;-73
2023/02/21 11:05:12;;;;;;;26.20;18.05;;;11.90;99.90;;;;;;5070908;28;20197;-73
2023/02/21 11:07:41;;;;;;;28.85;17.50;;;11.90;99.90;;;;;;5079809;28;20222;-73
2023/02/21 11:10:27;;;;;;;32.83;18.20;;;11.90;99.90;;;;;;5084601;28;20210;-73
2023/02/21 11:13:07;;;;;;;28.13;17.38;;;11.90;99.90;;;;;;5077200;28;20226;-74
2023/02/21 11:15:34;;;;;;;31.08;20.10;;;12.00;99.90;;;;;;5082640;28;20209;-74
2023/02/21 11:18:13;;;;;;;26.52;18.10;;;12.00;99.90;;;;;;5081048;28;20225;-74
2023/02/21 11:20:40;;;;;;;31.33;18.95;;;11.90;99.90;;;;;;5073798;28;20652;-73
2023/02/21 11:23:21;;;;;;;23.88;15.38;;;12.00;99.90;;;;;;5073262;28;20232;-74
2023/02/21 11:25:50;;;;;;;33.05;16.50;;;12.10;99.90;;;;;;5067265;28;20698;-74
2023/02/21 11:28:22;;;;;;;26.60;16.73;;;12.30;99.90;;;;;;5074451;28;20210;-74
2023/02/21 11:31:03;;;;;;;28.23;16.10;;;12.50;99.90;;;;;;5073406;28;20198;-74
2023/02/21 11:33:32;;;;;;;24.00;16.13;;;12.50;99.90;;;;;;5073196;28;20203;-73
2023/02/21 11:36:10;;;;;;;30.67;17.48;;;12.50;99.90;;;;;;5064341;28;20213;-74
2023/02/21 11:38:42;;;;;;;20.45;15.57;;;12.60;99.90;;;;;;5055592;28;20661;-75
2023/02/21 11:41:20;;;;;;;24.98;16.50;;;12.60;99.90;;;;;;5073017;28;20573;-74
2023/02/21 11:43:49;;;;;;;21.33;15.35;;;12.60;99.90;;;;;;5064265;28;20674;-74
2023/02/21 11:46:33;;;;;;;21.45;16.08;;;12.70;99.90;;;;;;5071066;28;20284;-73
2023/02/21 11:49:07;;;;;;;24.58;13.90;;;12.80;99.90;;;;;;5079295;28;20585;-74
2023/02/21 11:51:40;;;;;;;25.67;15.00;;;12.90;99.90;;;;;;5065347;28;20268;-75
2023/02/21 11:54:09;;;;;;;25.92;14.63;;;12.90;99.90;;;;;;5060062;28;20290;-74
2023/02/21 11:56:51;;;;;;;22.63;14.50;;;12.60;99.90;;;;;;5072133;28;20276;-73
2023/02/21 11:59:32;;;;;;;26.55;16.23;;;12.70;99.90;;;;;;5068465;28;20630;-73
2023/02/21 12:02:26;;;;;;;21.77;14.32;;;12.70;99.90;;;;;;5075204;28;20218;-75
2023/02/21 12:05:05;;;;;;;27.35;13.68;;;12.60;99.90;;;;;;5061324;28;20259;-75
2023/02/21 12:07:39;;;;;;;14.68;12.55;;;12.70;99.90;;;;;;5075412;28;20254;-74
2023/02/21 12:10:24;;;;;;;21.48;14.43;;;12.60;99.90;;;;;;5053598;28;20203;-73
2023/02/21 12:13:00;;;;;;;19.17;13.65;;;12.60;99.90;;;;;;5058149;28;20194;-75
2023/02/21 12:15:48;;;;;;;19.95;13.05;;;12.70;99.90;;;;;;5055559;28;20222;-75
2023/02/21 12:18:32;;;;;;;29.70;14.85;;;12.70;99.90;;;;;;5071548;28;20207;-75
2023/02/21 12:21:19;;;;;;;23.58;15.25;;;12.80;99.90;;;;;;5056273;28;20248;-75
2023/02/21 12:23:54;;;;;;;21.13;14.20;;;12.50;99.90;;;;;;5064402;28;20203;-73
2023/02/21 12:26:33;;;;;;;19.88;14.13;;;12.70;99.90;;;;;;5055651;28;20315;-74
2023/02/21 12:29:22;;;;;;;21.75;13.82;;;12.70;99.90;;;;;;5055604;28;20284;-74
2023/02/21 12:32:20;;;;;;;21.58;14.23;;;12.80;99.90;;;;;;5065868;28;20202;-75
2023/02/21 12:35:12;;;;;;;27.65;14.85;;;12.70;99.90;;;;;;5072275;28;20203;-75
2023/02/21 12:37:49;;;;;;;20.17;14.18;;;12.70;99.90;;;;;;5072797;28;20268;-75
2023/02/21 12:40:32;;;;;;;22.88;14.95;;;12.90;99.90;;;;;;5053396;28;20213;-75
2023/02/21 12:43:22;;;;;;;18.80;13.90;;;13.00;99.90;;;;;;5062004;28;20222;-74
2023/02/21 12:45:58;;;;;;;18.40;13.48;;;12.90;99.90;;;;;;5069380;28;20226;-74
2023/02/21 12:48:33;;;;;;;21.50;15.10;;;13.00;99.90;;;;;;5072110;28;20199;-74
2023/02/21 12:51:05;;;;;;;19.85;13.85;;;13.10;99.90;;;;;;5072463;28;20237;-74
2023/02/21 12:53:38;;;;;;;18.83;13.90;;;13.10;99.90;;;;;;5081928;28;20733;-72
2023/02/21 12:56:11;;;;;;;19.92;14.15;;;12.90;99.90;;;;;;5073407;28;20305;-74
2023/02/21 12:58:44;;;;;;;26.20;17.15;;;13.10;99.90;;;;;;5073843;28;20214;-74
2023/02/21 13:01:16;;;;;;;19.83;13.00;;;13.30;99.90;;;;;;5078433;28;20249;-74
2023/02/21 13:03:55;;;;;;;23.70;15.10;;;13.50;99.90;;;;;;5081118;28;20214;-74
2023/02/21 13:06:26;;;;;;;16.25;13.20;;;13.30;99.90;;;;;;5088832;28;20230;-74
2023/02/21 13:09:09;;;;;;;20.80;13.93;;;13.40;99.90;;;;;;5069071;28;20195;-75
2023/02/21 13:11:41;;;;;;;19.50;13.15;;;13.40;99.90;;;;;;5075026;28;20618;-74
2023/02/21 13:14:14;;;;;;;24.08;14.40;;;13.50;99.90;;;;;;5078388;28;20290;-74
2023/02/21 13:16:43;;;;;;;18.60;12.77;;;13.60;99.90;;;;;;5073361;28;20258;-76
2023/02/21 13:19:13;;;;;;;17.80;13.40;;;13.70;99.90;;;;;;5074707;28;20202;-75
2023/02/21 13:21:53;;;;;;;20.80;14.52;;;13.80;99.90;;;;;;5072548;28;20301;-74
2023/02/21 13:24:44;;;;;;;21.67;14.27;;;13.90;99.90;;;;;;5072820;28;20202;-73
2023/02/21 13:27:37;;;;;;;14.93;11.23;;;13.80;99.90;;;;;;5055591;28;20625;-75
2023/02/21 13:30:14;;;;;;;17.95;12.27;;;13.90;99.90;;;;;;5072727;28;20605;-74
2023/02/21 13:32:52;;;;;;;20.30;13.50;;;13.70;99.90;;;;;;5069772;28;20238;-72
2023/02/21 13:35:24;;;;;;;18.77;11.95;;;13.70;99.90;;;;;;5077346;28;20217;-74
2023/02/21 13:37:52;;;;;;;17.73;13.15;;;13.50;99.90;;;;;;5076319;28;20245;-74
2023/02/21 13:40:24;;;;;;;15.75;11.48;;;13.40;99.90;;;;;;5096843;28;20267;-75
2023/02/21 13:43:11;;;;;;;15.57;11.52;;;13.40;99.90;;;;;;5091561;28;20210;-75
2023/02/21 13:45:40;;;;;;;15.60;12.70;;;13.40;99.90;;;;;;5070195;28;20222;-74
2023/02/21 13:48:34;;;;;;;20.55;12.10;;;13.30;99.90;;;;;;5092901;28;20288;-75
2023/02/21 13:51:25;;;;;;;20.10;12.50;;;13.00;99.90;;;;;;5085791;28;20219;-74
2023/02/21 13:54:13;;;;;;;18.77;11.73;;;13.00;99.90;;;;;;5070292;28;20252;-75
2023/02/21 13:56:42;;;;;;;18.73;13.55;;;13.20;99.90;;;;;;5058106;28;20227;-75
2023/02/21 13:59:33;;;;;;;17.55;13.27;;;13.30;99.90;;;;;;5075215;28;20218;-75
2023/02/21 14:02:20;;;;;;;15.88;11.35;;;13.30;99.90;;;;;;5073119;28;20646;-75
2023/02/21 14:05:00;;;;;;;17.30;12.85;;;13.40;99.90;;;;;;5061366;28;20652;-75
2023/02/21 14:07:49;;;;;;;16.45;12.77;;;13.50;99.90;;;;;;5084645;28;20245;-77
2023/02/21 14:10:26;;;;;;;17.30;12.40;;;13.30;99.90;;;;;;5074190;28;20737;-76
2023/02/21 14:13:00;;;;;;;23.67;14.10;;;13.30;99.90;;;;;;5076402;28;20191;-74
2023/02/21 14:15:40;;;;;;;21.42;14.80;;;13.30;99.90;;;;;;5059757;28;20198;-75
2023/02/21 14:18:16;;;;;;;19.75;15.05;;;13.30;99.90;;;;;;5070614;28;20295;-75
2023/02/21 14:20:48;;;;;;;23.52;15.57;;;13.00;99.90;;;;;;5076053;28;20282;-75
2023/02/21 14:23:16;;;;;;;20.15;14.68;;;12.80;99.90;;;;;;5076697;28;20297;-75
2023/02/21 14:25:55;;;;;;;21.08;14.85;;;12.90;99.90;;;;;;5074902;28;20661;-76
2023/02/21 14:28:51;;;;;;;19.85;13.80;;;13.00;99.90;;;;;;5060136;28;20230;-75
2023/02/21 14:31:52;;;;;;;26.95;16.65;;;13.10;99.90;;;;;;5082895;28;20592;-75
2023/02/21 14:34:35;;;;;;;18.80;13.70;;;13.20;99.90;;;;;;5074581;28;20195;-74
2023/02/21 14:37:10;;;;;;;21.70;15.10;;;13.10;99.90;;;;;;5050665;28;20257;-74
2023/02/21 14:39:41;;;;;;;21.15;15.85;;;13.20;99.90;;;;;;5074538;28;20214;-74
2023/02/21 14:42:27;;;;;;;22.80;16.15;;;13.10;99.90;;;;;;5074093;28;20266;-75
2023/02/21 14:45:26;;;;;;;25.20;16.63;;;13.00;99.90;;;;;;5074812;28;20199;-75
2023/02/21 14:48:18;;;;;;;20.33;15.45;;;13.00;99.90;;;;;;5074587;28;20665;-76
2023/02/21 14:51:06;;;;;;;20.05;13.38;;;13.10;99.90;;;;;;5077039;28;20202;-76
2023/02/21 14:53:57;;;;;;;20.02;13.77;;;13.00;99.90;;;;;;5058165;28;20286;-75
2023/02/21 14:57:00;;;;;;;20.40;14.93;;;12.90;99.90;;;;;;5078927;28;20261;-74
2023/02/21 14:59:54;;;;;;;20.05;14.05;;;12.80;99.90;;;;;;5071198;28;20218;-74
2023/02/21 15:02:28;;;;;;;21.60;16.35;;;12.70;99.90;;;;;;5061895;28;20265;-75
2023/02/21 15:05:03;;;;;;;50.90;34.78;;;12.80;99.90;;;;;;5069042;28;20256;-77
2023/02/21 15:07:48;;;;;;;27.40;15.95;;;12.70;99.90;;;;;;5070036;28;20229;-76
2023/02/21 15:10:21;;;;;;;22.00;16.13;;;12.60;99.90;;;;;;5056912;28;20260;-75
2023/02/21 15:12:53;;;;;;;27.98;18.30;;;12.40;99.90;;;;;;5072168;28;20241;-74
2023/02/21 15:15:24;;;;;;;24.83;19.35;;;12.30;99.90;;;;;;5072509;28;20633;-74
2023/02/21 15:18:02;;;;;;;31.25;18.10;;;12.30;99.90;;;;;;5076257;28;20226;-74